sensor_id;sensor_type;location;lat;lon;timestamp;pressure;altitude;pressure_sealevel;temperature;humidity
7990;BME280;4040;42.848;23.034;2023-11-21T00:01:06;94769.63;;;1.79;100.00
7990;BME280;4040;42.848;23.034;2023-11-21T00:06:55;94786.25;;;1.76;100.00
7990;BME280;4040;42.848;23.034;2023-11-21T00:12:44;94786.66;;;1.78;100.00
7990;BME280;4040;42.848;23.034;2023-11-21T00:18:37;94785.28;;;1.84;100.00
7990;BME280;4040;42.848;23.034;2023-11-21T00:24:26;94788.25;;;1.98;100.00
7990;BME280;4040;42.848;23.034;2023-11-21T00:30:15;94780.69;;;2.00;100.00
7990;BME280;4040;42.848;23.034;2023-11-21T00:36:06;94788.94;;;1.95;100.00
7990;BME280;4040;42.848;23.034;2023-11-21T00:41:56;94770.16;;;1.69;100.00
7990;BME280;4040;42.848;23.034;2023-11-21T00:47:45;94757.53;;;1.47;100.00
7990;BME280;4040;42.848;23.034;2023-11-21T00:53:36;94762.66;;;1.40;100.00
7990;BME280;4040;42.848;23.034;2023-11-21T00:59:24;94765.94;;;1.18;100.00
7990;BME280;4040;42.848;23.034;2023-11-21T01:05:13;94781.31;;;0.97;100.00
7990;BME280;4040;42.848;23.034;2023-11-21T01:11:05;94777.91;;;0.81;100.00
7990;BME280;4040;42.848;23.034;2023-11-21T01:16:55;94768.63;;;0.75;100.00
7990;BME280;4040;42.848;23.034;2023-11-21T01:22:44;94770.88;;;0.73;100.00
7990;BME280;4040;42.848;23.034;2023-11-21T01:28:47;94779.16;;;0.87;100.00
7990;BME280;4040;42.848;23.034;2023-11-21T01:34:36;94751.22;;;0.90;100.00
7990;BME280;4040;42.848;23.034;2023-11-21T01:40:25;94738.63;;;0.71;100.00
7990;BME280;4040;42.848;23.034;2023-11-21T01:46:17;94747.13;;;0.92;100.00
7990;BME280;4040;42.848;23.034;2023-11-21T01:52:07;94748.66;;;0.93;100.00
7990;BME280;4040;42.848;23.034;2023-11-21T01:57:58;94739.41;;;0.87;100.00
7990;BME280;4040;42.848;23.034;2023-11-21T02:03:49;94746.09;;;0.81;100.00
7990;BME280;4040;42.848;23.034;2023-11-21T02:09:37;94700.75;;;0.55;100.00
7990;BME280;4040;42.848;23.034;2023-11-21T02:15:29;94733.00;;;0.57;100.00
7990;BME280;4040;42.848;23.034;2023-11-21T02:21:20;94735.69;;;0.61;100.00
7990;BME280;4040;42.848;23.034;2023-11-21T02:27:11;94723.44;;;0.68;100.00
7990;BME280;4040;42.848;23.034;2023-11-21T02:33:01;94714.69;;;0.52;100.00
7990;BME280;4040;42.848;23.034;2023-11-21T02:38:49;94725.09;;;0.45;100.00
7990;BME280;4040;42.848;23.034;2023-11-21T02:44:39;94704.06;;;0.37;100.00
7990;BME280;4040;42.848;23.034;2023-11-21T02:50:28;94711.19;;;0.48;100.00
7990;BME280;4040;42.848;23.034;2023-11-21T02:56:17;94717.94;;;0.61;100.00
7990;BME280;4040;42.848;23.034;2023-11-21T03:02:07;94714.09;;;0.74;100.00
7990;BME280;4040;42.848;23.034;2023-11-21T03:12:19;94719.81;;;0.92;100.00
7990;BME280;4040;42.848;23.034;2023-11-21T03:18:09;94702.66;;;1.01;100.00
7990;BME280;4040;42.848;23.034;2023-11-21T03:23:58;94718.88;;;1.15;100.00
7990;BME280;4040;42.848;23.034;2023-11-21T03:29:48;94714.88;;;1.06;100.00
7990;BME280;4040;42.848;23.034;2023-11-21T03:35:38;94707.94;;;1.01;100.00
7990;BME280;4040;42.848;23.034;2023-11-21T03:41:29;94697.16;;;1.10;100.00
7990;BME280;4040;42.848;23.034;2023-11-21T03:47:17;94699.63;;;1.18;100.00
7990;BME280;4040;42.848;23.034;2023-11-21T03:53:08;94701.59;;;1.21;100.00
7990;BME280;4040;42.848;23.034;2023-11-21T03:58:58;94709.56;;;1.21;100.00
7990;BME280;4040;42.848;23.034;2023-11-21T04:04:47;94705.19;;;1.13;100.00
7990;BME280;4040;42.848;23.034;2023-11-21T04:11:08;94703.25;;;1.10;100.00
7990;BME280;4040;42.848;23.034;2023-11-21T04:16:59;94708.97;;;1.12;100.00
7990;BME280;4040;42.848;23.034;2023-11-21T04:22:48;94717.03;;;1.00;100.00
7990;BME280;4040;42.848;23.034;2023-11-21T04:28:38;94716.00;;;0.89;100.00
7990;BME280;4040;42.848;23.034;2023-11-21T04:34:27;94721.22;;;0.86;100.00
7990;BME280;4040;42.848;23.034;2023-11-21T04:40:17;94736.09;;;0.75;100.00
7990;BME280;4040;42.848;23.034;2023-11-21T04:46:09;94732.09;;;0.53;100.00
7990;BME280;4040;42.848;23.034;2023-11-21T04:51:58;94717.13;;;0.45;100.00
7990;BME280;4040;42.848;23.034;2023-11-21T04:57:47;94715.94;;;0.43;100.00
7990;BME280;4040;42.848;23.034;2023-11-21T05:03:37;94721.50;;;0.53;100.00
7990;BME280;4040;42.848;23.034;2023-11-21T05:09:27;94714.50;;;0.61;100.00
7990;BME280;4040;42.848;23.034;2023-11-21T05:15:19;94713.41;;;0.77;100.00
7990;BME280;4040;42.848;23.034;2023-11-21T05:21:09;94719.72;;;0.88;100.00
7990;BME280;4040;42.848;23.034;2023-11-21T05:26:58;94715.81;;;0.98;100.00
7990;BME280;4040;42.848;23.034;2023-11-21T05:32:47;94728.28;;;0.97;100.00
7990;BME280;4040;42.848;23.034;2023-11-21T05:38:38;94714.53;;;0.92;100.00
7990;BME280;4040;42.848;23.034;2023-11-21T05:44:27;94709.22;;;0.92;100.00
7990;BME280;4040;42.848;23.034;2023-11-21T05:50:17;94721.81;;;1.10;100.00
7990;BME280;4040;42.848;23.034;2023-11-21T05:56:07;94733.25;;;1.14;100.00
7990;BME280;4040;42.848;23.034;2023-11-21T06:01:56;94731.81;;;1.51;100.00
7990;BME280;4040;42.848;23.034;2023-11-21T06:07:46;94748.38;;;1.79;100.00
7990;BME280;4040;42.848;23.034;2023-11-21T06:17:58;94753.59;;;2.10;100.00
7990;BME280;4040;42.848;23.034;2023-11-21T06:23:47;94755.94;;;2.53;100.00
7990;BME280;4040;42.848;23.034;2023-11-21T06:29:36;94756.59;;;3.33;100.00
7990;BME280;4040;42.848;23.034;2023-11-21T06:35:27;94736.91;;;4.52;100.00
7990;BME280;4040;42.848;23.034;2023-11-21T06:41:17;94754.28;;;5.08;100.00
7990;BME280;4040;42.848;23.034;2023-11-21T06:47:06;94743.63;;;6.09;100.00
7990;BME280;4040;42.848;23.034;2023-11-21T06:52:56;94750.66;;;6.41;100.00
7990;BME280;4040;42.848;23.034;2023-11-21T06:58:45;94746.78;;;6.32;100.00
7990;BME280;4040;42.848;23.034;2023-11-21T07:04:35;94741.53;;;8.59;100.00
7990;BME280;4040;42.848;23.034;2023-11-21T07:10:25;94729.72;;;9.76;100.00
7990;BME280;4040;42.848;23.034;2023-11-21T07:20:35;94735.97;;;11.33;86.92
7990;BME280;4040;42.848;23.034;2023-11-21T07:26:26;94730.78;;;11.72;81.01
7990;BME280;4040;42.848;23.034;2023-11-21T07:32:15;94730.41;;;10.23;83.26
7990;BME280;4040;42.848;23.034;2023-11-21T07:38:04;94720.78;;;10.89;91.95
7990;BME280;4040;42.848;23.034;2023-11-21T07:43:54;94715.97;;;13.39;70.80
7990;BME280;4040;42.848;23.034;2023-11-21T07:49:43;94715.69;;;14.74;62.36
7990;BME280;4040;42.848;23.034;2023-11-21T07:55:34;94705.53;;;16.27;57.38
7990;BME280;4040;42.848;23.034;2023-11-21T08:01:25;94705.81;;;14.39;59.79
7990;BME280;4040;42.848;23.034;2023-11-21T08:07:15;94712.72;;;12.15;67.68
7990;BME280;4040;42.848;23.034;2023-11-21T08:13:05;94714.28;;;11.43;77.58
7990;BME280;4040;42.848;23.034;2023-11-21T08:23:19;94709.53;;;13.68;66.46
7990;BME280;4040;42.848;23.034;2023-11-21T08:29:12;94708.72;;;14.16;64.91
7990;BME280;4040;42.848;23.034;2023-11-21T08:35:01;94704.00;;;13.56;66.08
7990;BME280;4040;42.848;23.034;2023-11-21T08:40:51;94699.53;;;12.59;70.89
7990;BME280;4040;42.848;23.034;2023-11-21T08:46:41;94697.94;;;11.27;81.98
7990;BME280;4040;42.848;23.034;2023-11-21T08:52:31;94674.53;;;10.94;93.56
7990;BME280;4040;42.848;23.034;2023-11-21T08:58:21;94658.81;;;11.16;93.21
7990;BME280;4040;42.848;23.034;2023-11-21T09:04:10;94640.09;;;10.52;99.45
7990;BME280;4040;42.848;23.034;2023-11-21T09:09:59;94639.25;;;9.92;100.00
7990;BME280;4040;42.848;23.034;2023-11-21T09:15:50;94624.75;;;10.19;100.00
7990;BME280;4040;42.848;23.034;2023-11-21T09:26:00;94596.31;;;10.18;100.00
7990;BME280;4040;42.848;23.034;2023-11-21T09:31:51;94581.53;;;11.55;100.00
7990;BME280;4040;42.848;23.034;2023-11-21T09:37:43;94566.84;;;13.69;79.46
7990;BME280;4040;42.848;23.034;2023-11-21T09:43:33;94553.59;;;13.58;77.12
7990;BME280;4040;42.848;23.034;2023-11-21T09:49:24;94545.53;;;12.59;81.60
7990;BME280;4040;42.848;23.034;2023-11-21T09:55:16;94549.22;;;11.94;88.56
7990;BME280;4040;42.848;23.034;2023-11-21T10:01:08;94543.94;;;12.26;86.41
7990;BME280;4040;42.848;23.034;2023-11-21T10:06:58;94541.22;;;12.46;82.40
7990;BME280;4040;42.848;23.034;2023-11-21T10:12:50;94497.53;;;11.57;87.48
7990;BME280;4040;42.848;23.034;2023-11-21T10:18:40;94522.03;;;11.23;92.11
7990;BME280;4040;42.848;23.034;2023-11-21T10:21:08;94522.47;;;11.18;95.79
7990;BME280;4040;42.848;23.034;2023-11-21T10:26:58;94508.56;;;10.51;100.00
7990;BME280;4040;42.848;23.034;2023-11-21T10:32:47;94487.75;;;9.98;100.00
7990;BME280;4040;42.848;23.034;2023-11-21T10:38:42;94488.50;;;9.99;100.00
7990;BME280;4040;42.848;23.034;2023-11-21T10:44:34;94494.03;;;9.89;100.00
7990;BME280;4040;42.848;23.034;2023-11-21T10:50:23;94469.81;;;9.59;100.00
7990;BME280;4040;42.848;23.034;2023-11-21T10:56:14;94463.44;;;9.46;100.00
7990;BME280;4040;42.848;23.034;2023-11-21T11:02:13;94457.88;;;9.30;100.00
7990;BME280;4040;42.848;23.034;2023-11-21T11:08:08;94454.38;;;9.33;100.00
7990;BME280;4040;42.848;23.034;2023-11-21T11:14:00;94457.78;;;9.37;100.00
7990;BME280;4040;42.848;23.034;2023-11-21T11:19:52;94459.06;;;9.25;100.00
7990;BME280;4040;42.848;23.034;2023-11-21T11:26:01;94467.53;;;9.24;100.00
7990;BME280;4040;42.848;23.034;2023-11-21T11:32:01;94465.78;;;9.07;100.00
7990;BME280;4040;42.848;23.034;2023-11-21T11:37:56;94475.88;;;8.96;100.00
7990;BME280;4040;42.848;23.034;2023-11-21T11:43:45;94480.44;;;8.99;100.00
7990;BME280;4040;42.848;23.034;2023-11-21T11:49:34;94489.06;;;8.80;100.00
7990;BME280;4040;42.848;23.034;2023-11-21T11:55:25;94484.47;;;8.80;100.00
7990;BME280;4040;42.848;23.034;2023-11-21T12:01:18;94469.22;;;8.67;100.00
7990;BME280;4040;42.848;23.034;2023-11-21T12:07:07;94475.28;;;8.27;100.00
7990;BME280;4040;42.848;23.034;2023-11-21T12:09:37;94469.56;;;8.18;100.00
7990;BME280;4040;42.848;23.034;2023-11-21T12:15:27;94458.91;;;8.11;100.00
7990;BME280;4040;42.848;23.034;2023-11-21T12:21:18;94447.44;;;8.07;100.00
7990;BME280;4040;42.848;23.034;2023-11-21T12:27:07;94431.47;;;7.86;100.00
7990;BME280;4040;42.848;23.034;2023-11-21T12:32:58;94428.53;;;7.66;100.00
7990;BME280;4040;42.848;23.034;2023-11-21T12:38:47;94420.97;;;7.51;100.00
7990;BME280;4040;42.848;23.034;2023-11-21T12:41:16;94411.41;;;7.50;100.00
7990;BME280;4040;42.848;23.034;2023-11-21T12:47:05;94404.91;;;7.44;100.00
7990;BME280;4040;42.848;23.034;2023-11-21T12:53:01;94401.13;;;7.42;100.00
7990;BME280;4040;42.848;23.034;2023-11-21T12:58:54;94397.31;;;7.32;100.00
7990;BME280;4040;42.848;23.034;2023-11-21T13:04:43;94392.50;;;6.99;100.00
7990;BME280;4040;42.848;23.034;2023-11-21T13:10:43;94384.38;;;7.20;100.00
7990;BME280;4040;42.848;23.034;2023-11-21T13:16:34;94368.88;;;7.59;100.00
7990;BME280;4040;42.848;23.034;2023-11-21T13:22:23;94376.44;;;7.71;100.00
7990;BME280;4040;42.848;23.034;2023-11-21T13:28:14;94376.56;;;7.50;100.00
7990;BME280;4040;42.848;23.034;2023-11-21T13:34:03;94363.41;;;7.69;100.00
7990;BME280;4040;42.848;23.034;2023-11-21T13:39:55;94356.47;;;7.79;100.00
7990;BME280;4040;42.848;23.034;2023-11-21T13:42:23;94361.41;;;7.84;100.00
7990;BME280;4040;42.848;23.034;2023-11-21T13:48:16;94354.88;;;7.88;100.00
7990;BME280;4040;42.848;23.034;2023-11-21T13:54:12;94353.28;;;7.98;100.00
7990;BME280;4040;42.848;23.034;2023-11-21T14:00:00;94356.88;;;7.77;100.00
7990;BME280;4040;42.848;23.034;2023-11-21T14:05:51;94368.88;;;7.59;100.00
7990;BME280;4040;42.848;23.034;2023-11-21T14:11:39;94371.53;;;7.59;100.00
7990;BME280;4040;42.848;23.034;2023-11-21T14:17:28;94364.59;;;7.65;100.00
7990;BME280;4040;42.848;23.034;2023-11-21T14:26:51;94339.44;;;7.52;100.00
7990;BME280;4040;42.848;23.034;2023-11-21T14:32:40;94356.69;;;7.47;100.00
7990;BME280;4040;42.848;23.034;2023-11-21T14:38:29;94341.88;;;7.29;100.00
7990;BME280;4040;42.848;23.034;2023-11-21T14:44:19;94338.81;;;7.31;100.00
7990;BME280;4040;42.848;23.034;2023-11-21T14:50:11;94336.75;;;7.52;100.00
7990;BME280;4040;42.848;23.034;2023-11-21T14:56:20;94336.03;;;7.48;100.00
7990;BME280;4040;42.848;23.034;2023-11-21T15:02:15;94322.19;;;7.53;100.00
7990;BME280;4040;42.848;23.034;2023-11-21T15:08:08;94315.28;;;7.55;100.00
7990;BME280;4040;42.848;23.034;2023-11-21T15:14:07;94311.94;;;7.41;100.00
7990;BME280;4040;42.848;23.034;2023-11-21T15:19:58;94311.22;;;7.37;100.00
7990;BME280;4040;42.848;23.034;2023-11-21T15:30:09;94306.91;;;7.50;100.00
7990;BME280;4040;42.848;23.034;2023-11-21T15:36:00;94309.69;;;7.36;100.00
7990;BME280;4040;42.848;23.034;2023-11-21T15:41:49;94293.22;;;7.34;100.00
7990;BME280;4040;42.848;23.034;2023-11-21T15:47:38;94289.38;;;7.35;100.00
7990;BME280;4040;42.848;23.034;2023-11-21T15:53:28;94280.97;;;7.37;100.00
7990;BME280;4040;42.848;23.034;2023-11-21T15:59:18;94285.59;;;7.36;100.00
7990;BME280;4040;42.848;23.034;2023-11-21T16:05:07;94282.22;;;7.22;100.00
7990;BME280;4040;42.848;23.034;2023-11-21T16:10:57;94272.00;;;7.06;100.00
7990;BME280;4040;42.848;23.034;2023-11-21T16:16:47;94276.31;;;6.86;100.00
7990;BME280;4040;42.848;23.034;2023-11-21T16:22:35;94286.53;;;7.05;100.00
7990;BME280;4040;42.848;23.034;2023-11-21T16:32:47;94271.31;;;6.88;100.00
7990;BME280;4040;42.848;23.034;2023-11-21T16:38:36;94260.97;;;6.90;100.00
7990;BME280;4040;42.848;23.034;2023-11-21T16:44:25;94256.75;;;6.96;100.00
7990;BME280;4040;42.848;23.034;2023-11-21T16:50:16;94249.06;;;7.02;100.00
7990;BME280;4040;42.848;23.034;2023-11-21T16:56:06;94251.03;;;6.94;100.00
7990;BME280;4040;42.848;23.034;2023-11-21T17:01:55;94240.72;;;6.89;100.00
7990;BME280;4040;42.848;23.034;2023-11-21T17:07:45;94244.56;;;6.88;100.00
7990;BME280;4040;42.848;23.034;2023-11-21T17:13:34;94239.13;;;6.99;100.00
7990;BME280;4040;42.848;23.034;2023-11-21T17:19:23;94240.00;;;6.85;100.00
7990;BME280;4040;42.848;23.034;2023-11-21T17:25:14;94234.22;;;6.90;100.00
7990;BME280;4040;42.848;23.034;2023-11-21T17:35:24;94246.44;;;6.88;100.00
7990;BME280;4040;42.848;23.034;2023-11-21T17:41:19;94238.84;;;6.86;100.00
7990;BME280;4040;42.848;23.034;2023-11-21T17:47:08;94246.81;;;6.93;100.00
7990;BME280;4040;42.848;23.034;2023-11-21T17:52:57;94237.69;;;6.87;100.00
7990;BME280;4040;42.848;23.034;2023-11-21T17:58:48;94246.44;;;6.91;100.00
7990;BME280;4040;42.848;23.034;2023-11-21T18:04:40;94240.38;;;6.80;100.00
7990;BME280;4040;42.848;23.034;2023-11-21T18:10:29;94237.00;;;6.69;100.00
7990;BME280;4040;42.848;23.034;2023-11-21T18:16:20;94232.41;;;6.73;100.00
7990;BME280;4040;42.848;23.034;2023-11-21T18:22:09;94226.28;;;6.76;100.00
7990;BME280;4040;42.848;23.034;2023-11-21T18:27:58;94222.44;;;6.77;100.00
7990;BME280;4040;42.848;23.034;2023-11-21T18:38:10;94232.44;;;6.66;100.00
7990;BME280;4040;42.848;23.034;2023-11-21T18:43:59;94227.06;;;6.70;100.00
7990;BME280;4040;42.848;23.034;2023-11-21T18:49:48;94203.78;;;6.63;100.00
7990;BME280;4040;42.848;23.034;2023-11-21T18:55:39;94218.03;;;6.39;100.00
7990;BME280;4040;42.848;23.034;2023-11-21T19:01:29;94212.25;;;6.51;100.00
7990;BME280;4040;42.848;23.034;2023-11-21T19:07:18;94215.72;;;6.45;100.00
7990;BME280;4040;42.848;23.034;2023-11-21T19:13:10;94222.63;;;6.42;100.00
7990;BME280;4040;42.848;23.034;2023-11-21T19:18:59;94194.84;;;6.08;100.00
7990;BME280;4040;42.848;23.034;2023-11-21T19:24:48;94211.97;;;6.25;100.00
7990;BME280;4040;42.848;23.034;2023-11-21T19:30:39;94221.13;;;6.24;100.00
7990;BME280;4040;42.848;23.034;2023-11-21T19:40:51;94216.56;;;6.24;100.00
7990;BME280;4040;42.848;23.034;2023-11-21T19:46:41;94208.59;;;6.10;100.00
7990;BME280;4040;42.848;23.034;2023-11-21T19:52:30;94206.25;;;6.26;100.00
7990;BME280;4040;42.848;23.034;2023-11-21T19:58:19;94214.97;;;6.44;100.00
7990;BME280;4040;42.848;23.034;2023-11-21T20:04:09;94201.97;;;6.46;100.00
7990;BME280;4040;42.848;23.034;2023-11-21T20:09:58;94198.19;;;6.33;100.00
7990;BME280;4040;42.848;23.034;2023-11-21T20:15:47;94214.25;;;6.26;100.00
7990;BME280;4040;42.848;23.034;2023-11-21T20:21:37;94209.00;;;6.02;100.00
7990;BME280;4040;42.848;23.034;2023-11-21T20:27:26;94207.41;;;6.18;100.00
7990;BME280;4040;42.848;23.034;2023-11-21T20:33:17;94213.19;;;6.06;100.00
7990;BME280;4040;42.848;23.034;2023-11-21T20:43:29;94223.09;;;6.13;100.00
7990;BME280;4040;42.848;23.034;2023-11-21T20:49:17;94212.84;;;5.90;100.00
7990;BME280;4040;42.848;23.034;2023-11-21T20:55:07;94214.34;;;6.05;100.00
7990;BME280;4040;42.848;23.034;2023-11-21T21:00:57;94194.41;;;6.27;100.00
7990;BME280;4040;42.848;23.034;2023-11-21T21:06:46;94202.03;;;6.32;100.00
7990;BME280;4040;42.848;23.034;2023-11-21T21:12:35;94215.78;;;6.31;100.00
7990;BME280;4040;42.848;23.034;2023-11-21T21:18:26;94216.50;;;6.38;100.00
7990;BME280;4040;42.848;23.034;2023-11-21T21:24:15;94219.53;;;6.40;100.00
7990;BME280;4040;42.848;23.034;2023-11-21T21:30:05;94209.63;;;6.37;100.00
7990;BME280;4040;42.848;23.034;2023-11-21T21:35:57;94227.19;;;6.38;100.00
7990;BME280;4040;42.848;23.034;2023-11-21T21:46:08;94229.50;;;6.36;100.00
7990;BME280;4040;42.848;23.034;2023-11-21T21:51:59;94222.63;;;6.35;100.00
7990;BME280;4040;42.848;23.034;2023-11-21T21:58:07;94225.69;;;6.37;100.00
7990;BME280;4040;42.848;23.034;2023-11-21T22:03:56;94228.78;;;6.32;100.00
7990;BME280;4040;42.848;23.034;2023-11-21T22:09:48;94212.75;;;6.25;100.00
7990;BME280;4040;42.848;23.034;2023-11-21T22:15:38;94215.78;;;6.27;100.00
7990;BME280;4040;42.848;23.034;2023-11-21T22:21:28;94210.41;;;6.34;100.00
7990;BME280;4040;42.848;23.034;2023-11-21T22:27:18;94214.97;;;6.37;100.00
7990;BME280;4040;42.848;23.034;2023-11-21T22:33:07;94226.09;;;6.32;100.00
7990;BME280;4040;42.848;23.034;2023-11-21T22:38:56;94200.94;;;6.16;100.00
7990;BME280;4040;42.848;23.034;2023-11-21T22:49:09;94218.09;;;6.25;100.00
7990;BME280;4040;42.848;23.034;2023-11-21T22:55:00;94207.31;;;6.39;100.00
7990;BME280;4040;42.848;23.034;2023-11-21T23:08:31;94162.41;;;6.06;100.00
7990;BME280;4040;42.848;23.034;2023-11-21T23:14:21;94192.06;;;6.36;100.00
7990;BME280;4040;42.848;23.034;2023-11-21T23:20:12;94192.06;;;6.36;100.00
7990;BME280;4040;42.848;23.034;2023-11-21T23:26:08;94189.75;;;6.42;100.00
7990;BME280;4040;42.848;23.034;2023-11-21T23:31:58;94183.69;;;6.27;100.00
7990;BME280;4040;42.848;23.034;2023-11-21T23:37:47;94176.81;;;6.33;100.00
7990;BME280;4040;42.848;23.034;2023-11-21T23:43:37;94198.94;;;6.41;100.00
7990;BME280;4040;42.848;23.034;2023-11-21T23:49:25;94175.31;;;6.18;100.00
7990;BME280;4040;42.848;23.034;2023-11-21T23:55:15;94188.31;;;6.20;100.00
